sensor_id;sensor_type;location;lat;lon;timestamp;P1;durP1;ratioP1;P2;durP2;ratioP2
77544;SDS011;66672;50.328;7.610;2023-05-08T00:02:09;11.55;;;8.50;;
77544;SDS011;66672;50.328;7.610;2023-05-08T00:04:34;12.23;;;8.30;;
77544;SDS011;66672;50.328;7.610;2023-05-08T00:06:59;12.05;;;8.27;;
77544;SDS011;66672;50.328;7.610;2023-05-08T00:09:25;12.00;;;8.50;;
77544;SDS011;66672;50.328;7.610;2023-05-08T00:11:50;12.90;;;9.18;;
77544;SDS011;66672;50.328;7.610;2023-05-08T00:14:15;11.32;;;7.95;;
77544;SDS011;66672;50.328;7.610;2023-05-08T00:16:40;13.93;;;8.63;;
77544;SDS011;66672;50.328;7.610;2023-05-08T00:19:05;13.02;;;8.98;;
77544;SDS011;66672;50.328;7.610;2023-05-08T00:21:31;12.48;;;8.45;;
77544;SDS011;66672;50.328;7.610;2023-05-08T00:23:56;14.07;;;8.70;;
77544;SDS011;66672;50.328;7.610;2023-05-08T00:26:21;11.43;;;8.30;;
77544;SDS011;66672;50.328;7.610;2023-05-08T00:28:47;14.00;;;9.00;;
77544;SDS011;66672;50.328;7.610;2023-05-08T00:31:12;13.15;;;8.57;;
77544;SDS011;66672;50.328;7.610;2023-05-08T00:33:38;12.15;;;8.43;;
77544;SDS011;66672;50.328;7.610;2023-05-08T00:36:03;12.15;;;8.90;;
77544;SDS011;66672;50.328;7.610;2023-05-08T00:38:29;13.63;;;9.00;;
77544;SDS011;66672;50.328;7.610;2023-05-08T00:40:55;12.50;;;9.25;;
77544;SDS011;66672;50.328;7.610;2023-05-08T00:43:20;13.00;;;8.68;;
77544;SDS011;66672;50.328;7.610;2023-05-08T00:45:49;15.52;;;9.48;;
77544;SDS011;66672;50.328;7.610;2023-05-08T00:48:15;13.00;;;9.45;;
77544;SDS011;66672;50.328;7.610;2023-05-08T00:50:40;13.27;;;9.40;;
77544;SDS011;66672;50.328;7.610;2023-05-08T00:53:05;12.75;;;8.93;;
77544;SDS011;66672;50.328;7.610;2023-05-08T00:55:31;14.18;;;9.10;;
77544;SDS011;66672;50.328;7.610;2023-05-08T00:57:56;13.45;;;9.25;;
77544;SDS011;66672;50.328;7.610;2023-05-08T01:00:22;12.93;;;9.80;;
77544;SDS011;66672;50.328;7.610;2023-05-08T01:02:47;14.40;;;9.90;;
77544;SDS011;66672;50.328;7.610;2023-05-08T01:05:12;14.02;;;9.85;;
77544;SDS011;66672;50.328;7.610;2023-05-08T01:07:37;13.68;;;10.02;;
77544;SDS011;66672;50.328;7.610;2023-05-08T01:10:03;15.93;;;10.48;;
77544;SDS011;66672;50.328;7.610;2023-05-08T01:12:30;14.60;;;9.70;;
77544;SDS011;66672;50.328;7.610;2023-05-08T01:22:21;17.38;;;9.73;;
77544;SDS011;66672;50.328;7.610;2023-05-08T01:24:58;15.57;;;10.77;;
77544;SDS011;66672;50.328;7.610;2023-05-08T01:27:39;15.68;;;10.75;;
77544;SDS011;66672;50.328;7.610;2023-05-08T01:30:19;15.90;;;11.02;;
77544;SDS011;66672;50.328;7.610;2023-05-08T01:35:41;17.73;;;10.95;;
77544;SDS011;66672;50.328;7.610;2023-05-08T01:41:04;16.40;;;11.68;;
77544;SDS011;66672;50.328;7.610;2023-05-08T01:43:51;18.20;;;12.00;;
77544;SDS011;66672;50.328;7.610;2023-05-08T01:46:19;16.75;;;11.77;;
77544;SDS011;66672;50.328;7.610;2023-05-08T01:48:49;14.80;;;11.43;;
77544;SDS011;66672;50.328;7.610;2023-05-08T01:51:20;15.15;;;11.20;;
77544;SDS011;66672;50.328;7.610;2023-05-08T01:53:47;15.45;;;11.02;;
77544;SDS011;66672;50.328;7.610;2023-05-08T01:56:14;15.60;;;10.52;;
77544;SDS011;66672;50.328;7.610;2023-05-08T01:58:43;13.38;;;9.73;;
77544;SDS011;66672;50.328;7.610;2023-05-08T02:01:09;14.88;;;10.15;;
77544;SDS011;66672;50.328;7.610;2023-05-08T02:03:34;16.08;;;11.73;;
77544;SDS011;66672;50.328;7.610;2023-05-08T02:06:00;18.00;;;11.77;;
77544;SDS011;66672;50.328;7.610;2023-05-08T02:08:26;17.17;;;11.27;;
77544;SDS011;66672;50.328;7.610;2023-05-08T02:10:53;15.75;;;11.35;;
77544;SDS011;66672;50.328;7.610;2023-05-08T02:13:20;15.68;;;11.80;;
77544;SDS011;66672;50.328;7.610;2023-05-08T02:15:46;15.80;;;10.18;;
77544;SDS011;66672;50.328;7.610;2023-05-08T02:18:12;15.60;;;10.80;;
77544;SDS011;66672;50.328;7.610;2023-05-08T02:20:39;14.85;;;11.30;;
77544;SDS011;66672;50.328;7.610;2023-05-08T02:23:04;16.52;;;11.48;;
77544;SDS011;66672;50.328;7.610;2023-05-08T02:25:30;19.23;;;11.82;;
77544;SDS011;66672;50.328;7.610;2023-05-08T02:27:55;19.30;;;11.93;;
77544;SDS011;66672;50.328;7.610;2023-05-08T02:30:21;15.60;;;11.45;;
77544;SDS011;66672;50.328;7.610;2023-05-08T02:32:48;16.77;;;11.82;;
77544;SDS011;66672;50.328;7.610;2023-05-08T02:35:14;15.52;;;11.35;;
77544;SDS011;66672;50.328;7.610;2023-05-08T02:37:44;16.48;;;10.93;;
77544;SDS011;66672;50.328;7.610;2023-05-08T02:40:09;17.83;;;11.90;;
77544;SDS011;66672;50.328;7.610;2023-05-08T02:42:35;18.55;;;11.93;;
77544;SDS011;66672;50.328;7.610;2023-05-08T02:45:01;15.95;;;11.88;;
77544;SDS011;66672;50.328;7.610;2023-05-08T02:47:28;16.50;;;11.23;;
77544;SDS011;66672;50.328;7.610;2023-05-08T02:52:42;15.60;;;11.60;;
77544;SDS011;66672;50.328;7.610;2023-05-08T02:55:19;17.75;;;11.32;;
77544;SDS011;66672;50.328;7.610;2023-05-08T02:57:49;15.95;;;11.15;;
77544;SDS011;66672;50.328;7.610;2023-05-08T03:00:19;17.13;;;11.10;;
77544;SDS011;66672;50.328;7.610;2023-05-08T03:05:14;15.40;;;11.55;;
77544;SDS011;66672;50.328;7.610;2023-05-08T03:07:40;18.75;;;11.98;;
77544;SDS011;66672;50.328;7.610;2023-05-08T03:10:12;16.00;;;10.63;;
77544;SDS011;66672;50.328;7.610;2023-05-08T03:12:40;16.67;;;11.18;;
77544;SDS011;66672;50.328;7.610;2023-05-08T03:15:11;16.65;;;11.38;;
77544;SDS011;66672;50.328;7.610;2023-05-08T03:17:38;17.30;;;11.35;;
77544;SDS011;66672;50.328;7.610;2023-05-08T03:20:04;17.63;;;11.48;;
77544;SDS011;66672;50.328;7.610;2023-05-08T03:22:31;16.85;;;12.07;;
77544;SDS011;66672;50.328;7.610;2023-05-08T03:24:58;17.40;;;11.88;;
77544;SDS011;66672;50.328;7.610;2023-05-08T03:27:25;16.33;;;11.77;;
77544;SDS011;66672;50.328;7.610;2023-05-08T03:29:51;17.77;;;12.10;;
77544;SDS011;66672;50.328;7.610;2023-05-08T03:32:18;15.95;;;11.13;;
77544;SDS011;66672;50.328;7.610;2023-05-08T03:34:43;14.18;;;10.52;;
77544;SDS011;66672;50.328;7.610;2023-05-08T03:37:09;18.95;;;11.27;;
77544;SDS011;66672;50.328;7.610;2023-05-08T03:39:34;15.55;;;11.63;;
77544;SDS011;66672;50.328;7.610;2023-05-08T03:42:00;17.63;;;11.25;;
77544;SDS011;66672;50.328;7.610;2023-05-08T03:44:26;17.45;;;12.20;;
77544;SDS011;66672;50.328;7.610;2023-05-08T03:46:52;15.73;;;11.68;;
77544;SDS011;66672;50.328;7.610;2023-05-08T03:49:19;15.43;;;11.20;;
77544;SDS011;66672;50.328;7.610;2023-05-08T03:51:47;16.35;;;11.35;;
77544;SDS011;66672;50.328;7.610;2023-05-08T03:54:12;14.52;;;10.75;;
77544;SDS011;66672;50.328;7.610;2023-05-08T03:56:38;14.73;;;11.25;;
77544;SDS011;66672;50.328;7.610;2023-05-08T03:59:16;15.68;;;11.65;;
77544;SDS011;66672;50.328;7.610;2023-05-08T04:01:47;16.65;;;11.10;;
77544;SDS011;66672;50.328;7.610;2023-05-08T04:04:48;16.10;;;11.77;;
77544;SDS011;66672;50.328;7.610;2023-05-08T04:07:13;18.88;;;11.98;;
77544;SDS011;66672;50.328;7.610;2023-05-08T04:09:43;16.83;;;12.07;;
77544;SDS011;66672;50.328;7.610;2023-05-08T04:12:17;20.02;;;12.68;;
77544;SDS011;66672;50.328;7.610;2023-05-08T04:14:47;16.70;;;12.40;;
77544;SDS011;66672;50.328;7.610;2023-05-08T04:17:14;17.50;;;13.57;;
77544;SDS011;66672;50.328;7.610;2023-05-08T04:19:42;18.33;;;12.18;;
77544;SDS011;66672;50.328;7.610;2023-05-08T04:22:09;21.92;;;12.68;;
77544;SDS011;66672;50.328;7.610;2023-05-08T04:24:36;16.00;;;12.32;;
77544;SDS011;66672;50.328;7.610;2023-05-08T04:27:03;19.77;;;13.13;;
77544;SDS011;66672;50.328;7.610;2023-05-08T04:29:28;18.90;;;12.48;;
77544;SDS011;66672;50.328;7.610;2023-05-08T04:31:54;18.70;;;11.77;;
77544;SDS011;66672;50.328;7.610;2023-05-08T04:34:20;20.40;;;13.40;;
77544;SDS011;66672;50.328;7.610;2023-05-08T04:36:45;16.80;;;11.82;;
77544;SDS011;66672;50.328;7.610;2023-05-08T04:39:12;17.92;;;12.23;;
77544;SDS011;66672;50.328;7.610;2023-05-08T04:41:37;18.95;;;13.00;;
77544;SDS011;66672;50.328;7.610;2023-05-08T04:44:02;19.73;;;13.23;;
77544;SDS011;66672;50.328;7.610;2023-05-08T04:46:28;17.42;;;11.80;;
77544;SDS011;66672;50.328;7.610;2023-05-08T04:48:53;18.45;;;12.18;;
77544;SDS011;66672;50.328;7.610;2023-05-08T04:51:18;17.23;;;12.52;;
77544;SDS011;66672;50.328;7.610;2023-05-08T04:53:43;16.23;;;12.60;;
77544;SDS011;66672;50.328;7.610;2023-05-08T04:56:09;17.75;;;12.00;;
77544;SDS011;66672;50.328;7.610;2023-05-08T04:58:34;17.73;;;12.88;;
77544;SDS011;66672;50.328;7.610;2023-05-08T05:01:03;15.68;;;11.05;;
77544;SDS011;66672;50.328;7.610;2023-05-08T05:03:28;16.73;;;11.50;;
77544;SDS011;66672;50.328;7.610;2023-05-08T05:05:59;17.10;;;12.55;;
77544;SDS011;66672;50.328;7.610;2023-05-08T05:08:25;24.02;;;12.98;;
77544;SDS011;66672;50.328;7.610;2023-05-08T05:10:50;19.15;;;12.18;;
77544;SDS011;66672;50.328;7.610;2023-05-08T05:13:16;17.23;;;12.77;;
77544;SDS011;66672;50.328;7.610;2023-05-08T05:15:41;14.60;;;11.25;;
77544;SDS011;66672;50.328;7.610;2023-05-08T05:18:07;15.50;;;11.02;;
77544;SDS011;66672;50.328;7.610;2023-05-08T05:20:32;19.38;;;14.40;;
77544;SDS011;66672;50.328;7.610;2023-05-08T05:22:57;19.95;;;13.40;;
77544;SDS011;66672;50.328;7.610;2023-05-08T05:25:23;17.45;;;13.02;;
77544;SDS011;66672;50.328;7.610;2023-05-08T05:27:48;16.42;;;11.77;;
77544;SDS011;66672;50.328;7.610;2023-05-08T05:30:13;18.35;;;12.35;;
77544;SDS011;66672;50.328;7.610;2023-05-08T05:32:38;15.90;;;12.35;;
77544;SDS011;66672;50.328;7.610;2023-05-08T05:35:03;18.70;;;12.30;;
77544;SDS011;66672;50.328;7.610;2023-05-08T05:37:29;16.27;;;11.95;;
77544;SDS011;66672;50.328;7.610;2023-05-08T05:39:54;17.52;;;12.65;;
77544;SDS011;66672;50.328;7.610;2023-05-08T05:42:19;17.33;;;12.27;;
77544;SDS011;66672;50.328;7.610;2023-05-08T05:44:45;14.85;;;11.63;;
77544;SDS011;66672;50.328;7.610;2023-05-08T05:47:10;16.63;;;11.90;;
77544;SDS011;66672;50.328;7.610;2023-05-08T05:49:36;17.80;;;11.23;;
77544;SDS011;66672;50.328;7.610;2023-05-08T05:52:01;15.40;;;11.63;;
77544;SDS011;66672;50.328;7.610;2023-05-08T05:54:26;19.63;;;12.80;;
77544;SDS011;66672;50.328;7.610;2023-05-08T05:56:51;15.20;;;11.05;;
77544;SDS011;66672;50.328;7.610;2023-05-08T05:59:17;16.35;;;11.45;;
77544;SDS011;66672;50.328;7.610;2023-05-08T06:01:42;17.30;;;12.00;;
77544;SDS011;66672;50.328;7.610;2023-05-08T06:04:07;15.77;;;10.93;;
77544;SDS011;66672;50.328;7.610;2023-05-08T06:06:32;16.23;;;11.35;;
77544;SDS011;66672;50.328;7.610;2023-05-08T06:08:57;14.80;;;11.35;;
77544;SDS011;66672;50.328;7.610;2023-05-08T06:11:23;15.35;;;10.93;;
77544;SDS011;66672;50.328;7.610;2023-05-08T06:13:48;17.10;;;11.80;;
77544;SDS011;66672;50.328;7.610;2023-05-08T06:16:13;17.95;;;12.20;;
77544;SDS011;66672;50.328;7.610;2023-05-08T06:18:39;15.30;;;10.60;;
77544;SDS011;66672;50.328;7.610;2023-05-08T06:21:04;15.10;;;11.48;;
77544;SDS011;66672;50.328;7.610;2023-05-08T06:23:29;15.07;;;10.55;;
77544;SDS011;66672;50.328;7.610;2023-05-08T06:25:54;17.08;;;12.05;;
77544;SDS011;66672;50.328;7.610;2023-05-08T06:28:20;16.38;;;12.15;;
77544;SDS011;66672;50.328;7.610;2023-05-08T06:30:46;17.00;;;11.73;;
77544;SDS011;66672;50.328;7.610;2023-05-08T06:33:11;18.50;;;11.05;;
77544;SDS011;66672;50.328;7.610;2023-05-08T06:35:36;16.55;;;11.75;;
77544;SDS011;66672;50.328;7.610;2023-05-08T06:38:02;15.93;;;11.55;;
77544;SDS011;66672;50.328;7.610;2023-05-08T06:40:27;14.95;;;10.05;;
77544;SDS011;66672;50.328;7.610;2023-05-08T06:42:52;15.68;;;11.48;;
77544;SDS011;66672;50.328;7.610;2023-05-08T06:45:17;13.93;;;10.13;;
77544;SDS011;66672;50.328;7.610;2023-05-08T06:47:42;18.02;;;10.57;;
77544;SDS011;66672;50.328;7.610;2023-05-08T06:50:07;15.18;;;10.45;;
77544;SDS011;66672;50.328;7.610;2023-05-08T06:52:33;13.68;;;9.75;;
77544;SDS011;66672;50.328;7.610;2023-05-08T06:54:58;14.27;;;10.40;;
77544;SDS011;66672;50.328;7.610;2023-05-08T06:57:23;13.23;;;9.93;;
77544;SDS011;66672;50.328;7.610;2023-05-08T06:59:51;18.95;;;9.82;;
77544;SDS011;66672;50.328;7.610;2023-05-08T07:02:16;15.68;;;9.43;;
77544;SDS011;66672;50.328;7.610;2023-05-08T07:04:42;15.40;;;9.40;;
77544;SDS011;66672;50.328;7.610;2023-05-08T07:07:08;14.68;;;10.48;;
77544;SDS011;66672;50.328;7.610;2023-05-08T07:09:33;16.55;;;11.18;;
77544;SDS011;66672;50.328;7.610;2023-05-08T07:11:58;13.88;;;9.93;;
77544;SDS011;66672;50.328;7.610;2023-05-08T07:14:23;16.13;;;10.32;;
77544;SDS011;66672;50.328;7.610;2023-05-08T07:16:48;13.45;;;9.90;;
77544;SDS011;66672;50.328;7.610;2023-05-08T07:19:13;15.43;;;10.27;;
77544;SDS011;66672;50.328;7.610;2023-05-08T07:21:39;14.55;;;10.40;;
77544;SDS011;66672;50.328;7.610;2023-05-08T07:24:04;15.63;;;10.07;;
77544;SDS011;66672;50.328;7.610;2023-05-08T07:26:29;14.05;;;10.35;;
77544;SDS011;66672;50.328;7.610;2023-05-08T07:28:55;14.43;;;10.13;;
77544;SDS011;66672;50.328;7.610;2023-05-08T07:31:20;12.95;;;8.93;;
77544;SDS011;66672;50.328;7.610;2023-05-08T07:33:45;11.88;;;9.45;;
77544;SDS011;66672;50.328;7.610;2023-05-08T07:36:11;14.48;;;10.05;;
77544;SDS011;66672;50.328;7.610;2023-05-08T07:38:36;13.57;;;9.85;;
77544;SDS011;66672;50.328;7.610;2023-05-08T07:41:01;13.13;;;9.55;;
77544;SDS011;66672;50.328;7.610;2023-05-08T07:43:26;13.43;;;9.68;;
77544;SDS011;66672;50.328;7.610;2023-05-08T07:45:52;15.63;;;10.50;;
77544;SDS011;66672;50.328;7.610;2023-05-08T07:48:17;14.80;;;10.52;;
77544;SDS011;66672;50.328;7.610;2023-05-08T07:50:42;14.70;;;10.05;;
77544;SDS011;66672;50.328;7.610;2023-05-08T07:53:08;14.48;;;10.23;;
77544;SDS011;66672;50.328;7.610;2023-05-08T07:55:33;13.02;;;9.80;;
77544;SDS011;66672;50.328;7.610;2023-05-08T07:57:59;14.60;;;9.88;;
77544;SDS011;66672;50.328;7.610;2023-05-08T08:00:24;14.57;;;10.27;;
77544;SDS011;66672;50.328;7.610;2023-05-08T08:02:51;15.38;;;10.23;;
77544;SDS011;66672;50.328;7.610;2023-05-08T08:05:16;14.02;;;10.15;;
77544;SDS011;66672;50.328;7.610;2023-05-08T08:07:42;14.40;;;10.07;;
77544;SDS011;66672;50.328;7.610;2023-05-08T08:10:07;14.73;;;9.57;;
77544;SDS011;66672;50.328;7.610;2023-05-08T08:12:32;12.80;;;9.18;;
77544;SDS011;66672;50.328;7.610;2023-05-08T08:14:58;14.20;;;9.68;;
77544;SDS011;66672;50.328;7.610;2023-05-08T08:17:23;14.70;;;9.73;;
77544;SDS011;66672;50.328;7.610;2023-05-08T08:19:48;13.55;;;9.52;;
77544;SDS011;66672;50.328;7.610;2023-05-08T08:22:13;14.55;;;11.10;;
77544;SDS011;66672;50.328;7.610;2023-05-08T08:24:39;15.00;;;10.18;;
77544;SDS011;66672;50.328;7.610;2023-05-08T08:27:04;14.52;;;11.02;;
77544;SDS011;66672;50.328;7.610;2023-05-08T08:29:29;14.65;;;10.95;;
77544;SDS011;66672;50.328;7.610;2023-05-08T08:31:55;13.65;;;9.85;;
77544;SDS011;66672;50.328;7.610;2023-05-08T08:34:20;12.25;;;9.35;;
77544;SDS011;66672;50.328;7.610;2023-05-08T08:36:45;12.90;;;9.70;;
77544;SDS011;66672;50.328;7.610;2023-05-08T08:39:10;13.52;;;10.18;;
77544;SDS011;66672;50.328;7.610;2023-05-08T08:41:37;13.57;;;10.13;;
77544;SDS011;66672;50.328;7.610;2023-05-08T08:44:03;13.52;;;10.02;;
77544;SDS011;66672;50.328;7.610;2023-05-08T08:46:28;14.18;;;9.65;;
77544;SDS011;66672;50.328;7.610;2023-05-08T08:48:55;14.32;;;10.43;;
77544;SDS011;66672;50.328;7.610;2023-05-08T08:51:27;11.77;;;9.43;;
77544;SDS011;66672;50.328;7.610;2023-05-08T08:54:08;13.40;;;9.90;;
77544;SDS011;66672;50.328;7.610;2023-05-08T08:56:35;14.40;;;10.43;;
77544;SDS011;66672;50.328;7.610;2023-05-08T08:59:00;16.13;;;10.40;;
77544;SDS011;66672;50.328;7.610;2023-05-08T09:01:26;14.27;;;10.38;;
77544;SDS011;66672;50.328;7.610;2023-05-08T09:03:53;13.75;;;10.50;;
77544;SDS011;66672;50.328;7.610;2023-05-08T09:06:18;14.10;;;10.30;;
77544;SDS011;66672;50.328;7.610;2023-05-08T09:08:43;15.85;;;10.82;;
77544;SDS011;66672;50.328;7.610;2023-05-08T09:11:09;16.42;;;10.38;;
77544;SDS011;66672;50.328;7.610;2023-05-08T09:13:34;14.48;;;10.57;;
77544;SDS011;66672;50.328;7.610;2023-05-08T09:15:59;14.88;;;10.63;;
77544;SDS011;66672;50.328;7.610;2023-05-08T09:18:25;15.57;;;10.75;;
77544;SDS011;66672;50.328;7.610;2023-05-08T09:20:50;15.20;;;10.77;;
77544;SDS011;66672;50.328;7.610;2023-05-08T09:23:16;14.10;;;10.85;;
77544;SDS011;66672;50.328;7.610;2023-05-08T09:25:45;14.13;;;10.45;;
77544;SDS011;66672;50.328;7.610;2023-05-08T09:28:17;14.90;;;10.88;;
77544;SDS011;66672;50.328;7.610;2023-05-08T09:30:51;13.73;;;10.13;;
77544;SDS011;66672;50.328;7.610;2023-05-08T09:33:16;16.77;;;10.40;;
77544;SDS011;66672;50.328;7.610;2023-05-08T09:35:41;13.27;;;11.15;;
77544;SDS011;66672;50.328;7.610;2023-05-08T09:38:07;13.45;;;10.32;;
77544;SDS011;66672;50.328;7.610;2023-05-08T09:40:32;14.48;;;10.77;;
77544;SDS011;66672;50.328;7.610;2023-05-08T09:42:57;13.82;;;10.13;;
77544;SDS011;66672;50.328;7.610;2023-05-08T09:45:35;15.15;;;11.35;;
77544;SDS011;66672;50.328;7.610;2023-05-08T09:48:02;13.10;;;10.02;;
77544;SDS011;66672;50.328;7.610;2023-05-08T09:50:28;12.60;;;9.75;;
77544;SDS011;66672;50.328;7.610;2023-05-08T09:52:53;12.90;;;9.32;;
77544;SDS011;66672;50.328;7.610;2023-05-08T09:55:18;12.93;;;9.70;;
77544;SDS011;66672;50.328;7.610;2023-05-08T09:57:54;14.05;;;9.98;;
77544;SDS011;66672;50.328;7.610;2023-05-08T10:00:21;14.20;;;10.75;;
77544;SDS011;66672;50.328;7.610;2023-05-08T10:02:59;15.27;;;11.20;;
77544;SDS011;66672;50.328;7.610;2023-05-08T10:05:26;13.98;;;9.75;;
77544;SDS011;66672;50.328;7.610;2023-05-08T10:07:51;14.70;;;10.32;;
77544;SDS011;66672;50.328;7.610;2023-05-08T10:10:24;14.25;;;10.88;;
77544;SDS011;66672;50.328;7.610;2023-05-08T10:12:56;13.25;;;10.05;;
77544;SDS011;66672;50.328;7.610;2023-05-08T10:15:21;13.90;;;9.93;;
77544;SDS011;66672;50.328;7.610;2023-05-08T10:17:50;17.45;;;11.10;;
77544;SDS011;66672;50.328;7.610;2023-05-08T10:20:17;12.68;;;10.27;;
77544;SDS011;66672;50.328;7.610;2023-05-08T10:22:43;14.55;;;9.75;;
77544;SDS011;66672;50.328;7.610;2023-05-08T10:25:10;13.85;;;9.90;;
77544;SDS011;66672;50.328;7.610;2023-05-08T10:27:58;15.50;;;11.75;;
77544;SDS011;66672;50.328;7.610;2023-05-08T10:30:29;16.23;;;11.60;;
77544;SDS011;66672;50.328;7.610;2023-05-08T10:32:55;15.35;;;11.10;;
77544;SDS011;66672;50.328;7.610;2023-05-08T10:35:23;15.00;;;11.20;;
77544;SDS011;66672;50.328;7.610;2023-05-08T10:37:48;14.77;;;10.52;;
77544;SDS011;66672;50.328;7.610;2023-05-08T10:40:14;17.98;;;11.10;;
77544;SDS011;66672;50.328;7.610;2023-05-08T10:42:45;16.17;;;11.20;;
77544;SDS011;66672;50.328;7.610;2023-05-08T10:45:11;14.15;;;11.18;;
77544;SDS011;66672;50.328;7.610;2023-05-08T10:50:22;14.55;;;11.10;;
77544;SDS011;66672;50.328;7.610;2023-05-08T10:53:01;15.10;;;10.75;;
77544;SDS011;66672;50.328;7.610;2023-05-08T10:55:30;13.90;;;10.98;;
77544;SDS011;66672;50.328;7.610;2023-05-08T11:00:30;16.48;;;12.32;;
77544;SDS011;66672;50.328;7.610;2023-05-08T11:03:03;16.30;;;12.07;;
77544;SDS011;66672;50.328;7.610;2023-05-08T11:05:29;15.43;;;11.23;;
77544;SDS011;66672;50.328;7.610;2023-05-08T11:07:58;14.75;;;10.95;;
77544;SDS011;66672;50.328;7.610;2023-05-08T11:10:31;17.15;;;11.15;;
77544;SDS011;66672;50.328;7.610;2023-05-08T11:12:56;14.30;;;10.70;;
77544;SDS011;66672;50.328;7.610;2023-05-08T11:15:38;14.43;;;11.88;;
77544;SDS011;66672;50.328;7.610;2023-05-08T11:18:10;16.20;;;11.35;;
77544;SDS011;66672;50.328;7.610;2023-05-08T11:21:20;15.73;;;10.80;;
77544;SDS011;66672;50.328;7.610;2023-05-08T11:23:27;16.13;;;12.05;;
77544;SDS011;66672;50.328;7.610;2023-05-08T11:26:02;14.35;;;11.85;;
77544;SDS011;66672;50.328;7.610;2023-05-08T11:28:31;15.77;;;12.60;;
77544;SDS011;66672;50.328;7.610;2023-05-08T11:31:00;14.95;;;11.52;;
77544;SDS011;66672;50.328;7.610;2023-05-08T11:33:28;17.70;;;11.55;;
77544;SDS011;66672;50.328;7.610;2023-05-08T11:35:58;18.60;;;13.25;;
77544;SDS011;66672;50.328;7.610;2023-05-08T11:38:31;14.95;;;11.30;;
77544;SDS011;66672;50.328;7.610;2023-05-08T11:45:52;15.57;;;12.07;;
77544;SDS011;66672;50.328;7.610;2023-05-08T11:48:18;15.02;;;10.65;;
77544;SDS011;66672;50.328;7.610;2023-05-08T11:50:43;15.80;;;11.30;;
77544;SDS011;66672;50.328;7.610;2023-05-08T11:53:09;16.70;;;10.38;;
77544;SDS011;66672;50.328;7.610;2023-05-08T11:55:34;15.57;;;11.00;;
77544;SDS011;66672;50.328;7.610;2023-05-08T11:58:00;13.80;;;10.90;;
77544;SDS011;66672;50.328;7.610;2023-05-08T12:00:25;16.17;;;10.75;;
77544;SDS011;66672;50.328;7.610;2023-05-08T12:02:50;15.15;;;11.95;;
77544;SDS011;66672;50.328;7.610;2023-05-08T12:05:15;13.45;;;11.18;;
77544;SDS011;66672;50.328;7.610;2023-05-08T12:07:50;14.88;;;11.07;;
77544;SDS011;66672;50.328;7.610;2023-05-08T12:10:15;14.00;;;11.05;;
77544;SDS011;66672;50.328;7.610;2023-05-08T12:12:41;15.38;;;11.93;;
77544;SDS011;66672;50.328;7.610;2023-05-08T12:15:07;17.45;;;11.77;;
77544;SDS011;66672;50.328;7.610;2023-05-08T12:17:33;15.55;;;11.52;;
77544;SDS011;66672;50.328;7.610;2023-05-08T12:20:08;14.82;;;10.90;;
77544;SDS011;66672;50.328;7.610;2023-05-08T12:22:33;13.30;;;10.88;;
77544;SDS011;66672;50.328;7.610;2023-05-08T12:24:58;14.45;;;10.73;;
77544;SDS011;66672;50.328;7.610;2023-05-08T12:27:23;16.10;;;11.90;;
77544;SDS011;66672;50.328;7.610;2023-05-08T12:29:48;17.80;;;11.68;;
77544;SDS011;66672;50.328;7.610;2023-05-08T12:32:13;15.88;;;10.77;;
77544;SDS011;66672;50.328;7.610;2023-05-08T12:34:39;17.05;;;11.15;;
77544;SDS011;66672;50.328;7.610;2023-05-08T12:37:04;13.45;;;11.07;;
77544;SDS011;66672;50.328;7.610;2023-05-08T12:39:33;16.38;;;10.98;;
77544;SDS011;66672;50.328;7.610;2023-05-08T12:41:58;13.23;;;9.80;;
77544;SDS011;66672;50.328;7.610;2023-05-08T12:44:24;14.07;;;11.00;;
77544;SDS011;66672;50.328;7.610;2023-05-08T12:46:50;14.80;;;10.68;;
77544;SDS011;66672;50.328;7.610;2023-05-08T12:49:25;13.25;;;10.23;;
77544;SDS011;66672;50.328;7.610;2023-05-08T12:51:50;13.98;;;10.30;;
77544;SDS011;66672;50.328;7.610;2023-05-08T12:54:16;13.65;;;9.68;;
77544;SDS011;66672;50.328;7.610;2023-05-08T12:56:42;15.10;;;10.93;;
77544;SDS011;66672;50.328;7.610;2023-05-08T12:59:08;12.48;;;9.32;;
77544;SDS011;66672;50.328;7.610;2023-05-08T13:01:33;13.15;;;9.75;;
77544;SDS011;66672;50.328;7.610;2023-05-08T13:03:58;11.65;;;8.77;;
77544;SDS011;66672;50.328;7.610;2023-05-08T13:06:26;10.02;;;8.32;;
77544;SDS011;66672;50.328;7.610;2023-05-08T13:08:51;11.73;;;8.45;;
77544;SDS011;66672;50.328;7.610;2023-05-08T13:11:26;12.13;;;7.78;;
77544;SDS011;66672;50.328;7.610;2023-05-08T13:13:51;10.05;;;7.93;;
77544;SDS011;66672;50.328;7.610;2023-05-08T13:16:16;11.23;;;8.60;;
77544;SDS011;66672;50.328;7.610;2023-05-08T13:18:42;10.32;;;8.18;;
77544;SDS011;66672;50.328;7.610;2023-05-08T13:21:07;11.10;;;8.43;;
77544;SDS011;66672;50.328;7.610;2023-05-08T13:23:32;10.98;;;9.52;;
77544;SDS011;66672;50.328;7.610;2023-05-08T13:25:57;11.25;;;8.63;;
77544;SDS011;66672;50.328;7.610;2023-05-08T13:28:22;11.00;;;8.43;;
77544;SDS011;66672;50.328;7.610;2023-05-08T13:30:47;11.63;;;9.02;;
77544;SDS011;66672;50.328;7.610;2023-05-08T13:33:13;10.35;;;8.73;;
77544;SDS011;66672;50.328;7.610;2023-05-08T13:35:38;10.98;;;8.38;;
77544;SDS011;66672;50.328;7.610;2023-05-08T13:38:03;11.52;;;8.43;;
77544;SDS011;66672;50.328;7.610;2023-05-08T13:40:28;10.80;;;8.35;;
77544;SDS011;66672;50.328;7.610;2023-05-08T13:42:54;13.23;;;9.50;;
77544;SDS011;66672;50.328;7.610;2023-05-08T13:45:19;13.50;;;9.07;;
77544;SDS011;66672;50.328;7.610;2023-05-08T13:47:45;12.35;;;9.15;;
77544;SDS011;66672;50.328;7.610;2023-05-08T13:50:10;12.52;;;8.50;;
77544;SDS011;66672;50.328;7.610;2023-05-08T13:52:36;10.80;;;8.75;;
77544;SDS011;66672;50.328;7.610;2023-05-08T13:55:01;10.80;;;8.68;;
77544;SDS011;66672;50.328;7.610;2023-05-08T13:57:27;11.52;;;9.30;;
77544;SDS011;66672;50.328;7.610;2023-05-08T13:59:52;12.38;;;8.57;;
77544;SDS011;66672;50.328;7.610;2023-05-08T14:02:17;11.48;;;9.02;;
77544;SDS011;66672;50.328;7.610;2023-05-08T14:04:42;11.43;;;9.23;;
77544;SDS011;66672;50.328;7.610;2023-05-08T14:07:07;12.82;;;9.07;;
77544;SDS011;66672;50.328;7.610;2023-05-08T14:09:33;11.73;;;8.93;;
77544;SDS011;66672;50.328;7.610;2023-05-08T14:11:58;12.65;;;8.70;;
77544;SDS011;66672;50.328;7.610;2023-05-08T14:14:23;12.10;;;8.95;;
77544;SDS011;66672;50.328;7.610;2023-05-08T14:16:48;13.25;;;8.63;;
77544;SDS011;66672;50.328;7.610;2023-05-08T14:19:15;11.45;;;8.60;;
77544;SDS011;66672;50.328;7.610;2023-05-08T14:21:40;10.75;;;8.15;;
77544;SDS011;66672;50.328;7.610;2023-05-08T14:24:05;10.95;;;8.13;;
77544;SDS011;66672;50.328;7.610;2023-05-08T14:26:30;10.20;;;7.80;;
77544;SDS011;66672;50.328;7.610;2023-05-08T14:28:55;9.88;;;7.82;;
77544;SDS011;66672;50.328;7.610;2023-05-08T14:31:21;10.85;;;8.15;;
77544;SDS011;66672;50.328;7.610;2023-05-08T14:33:46;10.75;;;7.85;;
77544;SDS011;66672;50.328;7.610;2023-05-08T14:36:11;12.63;;;7.75;;
77544;SDS011;66672;50.328;7.610;2023-05-08T14:38:36;8.00;;;6.20;;
77544;SDS011;66672;50.328;7.610;2023-05-08T14:41:01;8.55;;;6.32;;
77544;SDS011;66672;50.328;7.610;2023-05-08T14:43:27;10.57;;;7.65;;
77544;SDS011;66672;50.328;7.610;2023-05-08T14:45:52;9.43;;;7.32;;
77544;SDS011;66672;50.328;7.610;2023-05-08T14:48:17;10.27;;;6.75;;
77544;SDS011;66672;50.328;7.610;2023-05-08T14:50:42;8.30;;;6.80;;
77544;SDS011;66672;50.328;7.610;2023-05-08T14:53:08;10.35;;;7.18;;